Aeroporto :
LOGIN :

Iscrizione | Disclaimer

   EN    FR    IT 

 










Sommario :    VFR   VFR Marginale   IFR   IFR Intensivo   IFR Molto Intensivo
Visibilità : 
Base nubi : 
>= 8 km
>= 3000ft
5 / 8 km
1000 / 3000 ft
1500m / 5 km
500 / 1000 ft
800 / 1500m
200 / 500 ft
< 800m
< 200 ft
Simboli :   Temporali  Nebbia  Neve Forte  Precipitazioni Forti  Vento > 20 kt
SIGMETs :   Varie  Temporali  Ghiacco  Turbolenza  Onda orograficha  Ceneri Vulcaniche






- Altitudine del aeroporto : 1058 ft
- Codice IATA : SCN


EDDR - Saarbrücken

ULTIMO METAR :
  • 071850Z AUTO 04001KT 9999 OVC049 13/11 Q1020 NOSIG

METARs OBSOLETI :
  • 071820Z AUTO VRB01KT CAVOK 13/11 Q1020 NOSIG
  • 071750Z AUTO 26002KT CAVOK 13/11 Q1021 NOSIG
  • 071720Z AUTO 24003KT CAVOK 14/11 Q1020 NOSIG
  • 071650Z AUTO 23003KT CAVOK 15/11 Q1021 NOSIG
  • 071620Z AUTO 25004KT CAVOK 16/11 Q1021 NOSIG

TAF TAF EDDR
Valido dal 07 a 18 ore il 08 a 18 ore UTC


071700Z 0718/0818 VRB02KT CAVOK
PROB30
TEMPO 0803/0806 2000 BCFG
BECMG 0807/0809 28008KT
BECMG 0815/0817 32003KT



MetMap, La meteo Aeronautica in un colpo d'occhio ! - Copyright ORBIFLY Dicembre 2007 - Disclaimer

ORBIFLY MET'MAP TEAM :

Programmazione e sviluppo : Alexandra Zaïnal
Concezione : Baudouin d'Aumeries
Supporto tecnico e logistico : Manuel Goepfert
Aiuto : Marc-Olivier Méhu
Aiuto per la traduzione : Arnaldo La Scala




FONTI E CREDITI :

   NOAA